Главная страница
METAR-TAF:

METAR-TAF

Аэропорты :

Гран-Канария, Испания

широта: 27-56N, долгота: 015-23W, высота над уровнем моря: 23 м

Текущие метеонаблюдения

Эта сводка был подготовлена 42 минут назад, в 07:00 UTC
Ветер 16 Узел от северо-северо-восточный
Температура 17°C
Влажность 72%
Давление 1024 hPa
Видимость 10 км и более
Рассеянная облачность на высоте 2200 фута

METAR: GCLP 240700Z 02016KT 9999 BKN022 17/12 Q1024 NOSIG

Время: 07:42 (07:42 UTC)

Прогноз

Эта сводка был подготовлена 5 часа и 42 минут назад, в 02:00 UTC
Прогноз действительный с 24-го 03 UTC до 25-го 03 UTC
Ветер 13 Узел от северный
Видимость 10 км и более
Отдельные облака на высоте 2000 фута

TAF: GCLP 240200Z 2403/2503 01013KT 9999 SCT020 TX21/2414Z TN16/2406Z

Метеонаблюдения и прогнозы для более 4000 аэропортов (сводки METAR и TAF).

Имеющиеся станции представлены на карте желтыми и красными точками.

Чтобы увидеть название станции, наведите на нее мышь.

Затем щелкните, чтобы увидеть метеонаблюдения и метеопрогнозы.

Управление картой: чтобы увеличить масштаб, щелкните зеленые кнопки с черным крестиком; чтобы уменьшить масштаб, щелкните зеленую кнопку с тире; для просмотра соседних карт щелкайте зеленые стрелки.


METAR-TAF: